This is the latest recevied weather packets stored in our database for station/object N3DXC. If no packets are shown the sender has not sent any weather packets the latest 10 day(s).
| Time | Temp. | Humidity | Pressure | Rain* | Wind** | Luminosity | Snow |
|---|---|---|---|---|---|---|---|
| 1777945492 | 15° C | 74% | 1009 hPa | 0.51 mm | - | - | - |
| 1777945192 | 15° C | 76% | 1009.1 hPa | 0.76 mm | - | - | - |
| 1777944892 | 15° C | 77% | 1008.9 hPa | 1.02 mm | - | - | - |
| 1777944592 | 14.44° C | 78% | 1008.9 hPa | 1.02 mm | - | - | - |
| 1777944292 | 14.44° C | 80% | 1008.8 hPa | 1.27 mm | - | - | - |
| 1777943992 | 13.89° C | 81% | 1008.8 hPa | 1.52 mm | - | - | - |
| 1777943692 | 13.89° C | 82% | 1008.6 hPa | 2.03 mm | - | - | - |
| 1777943392 | 13.89° C | 83% | 1008.6 hPa | 2.29 mm | - | - | - |
| 1777943092 | 13.89° C | 84% | 1008.5 hPa | 2.79 mm | - | - | - |
| 1777942792 | 13.89° C | 84% | 1008.5 hPa | 2.79 mm | - | - | - |
| 1777942492 | 13.89° C | 84% | 1008.5 hPa | 2.79 mm | - | - | - |
| 1777942192 | 13.89° C | 84% | 1008.5 hPa | 2.54 mm | - | - | - |
| 1777941892 | 13.89° C | 84% | 1008.5 hPa | 2.54 mm | - | - | - |
| 1777941594 | 14.44° C | 81% | 1008.5 hPa | 2.29 mm | - | - | - |
| 1777941292 | 14.44° C | 79% | 1008.5 hPa | 2.03 mm | - | - | - |
| 1777940992 | 15° C | 78% | 1008.4 hPa | 2.03 mm | - | - | - |
| 1777940695 | 15° C | 76% | 1008.5 hPa | 1.78 mm | - | - | - |
| 1777940392 | 15° C | 75% | 1008.5 hPa | 1.52 mm | - | - | - |
| 1777940092 | 15.56° C | 73% | 1008.6 hPa | 1.02 mm | - | - | - |
| 1777939792 | 15.56° C | 69% | 1008.9 hPa | 0.76 mm | - | - | - |
| 1777939492 | 17.78° C | 58% | 1008.6 hPa | 0 mm | - | - | - |
| 1777939192 | 17.78° C | 57% | 1008.3 hPa | 0 mm | - | - | - |
| 1777938892 | 18.33° C | 54% | 1008.5 hPa | 0 mm | - | - | - |
| 1777938592 | 18.33° C | 52% | 1008.5 hPa | 0 mm | - | - | - |
| 1777938292 | 18.89° C | 51% | 1008.4 hPa | 0 mm | - | - | - |
* Rain latest hour (hover to see other rain measurements)
** Current wind speed in m/s (hover to see current wind gust speed)